sensor_id;sensor_type;location;lat;lon;timestamp;temperature;humidity
25342;DHT22;13298;48.792;9.154;2022-08-19T00:01:36;19.80;99.90
25342;DHT22;13298;48.792;9.154;2022-08-19T00:04:06;19.80;99.90
25342;DHT22;13298;48.792;9.154;2022-08-19T00:06:34;19.80;99.90
25342;DHT22;13298;48.792;9.154;2022-08-19T00:09:03;19.80;99.90
25342;DHT22;13298;48.792;9.154;2022-08-19T00:11:30;19.80;99.90
25342;DHT22;13298;48.792;9.154;2022-08-19T00:13:56;19.70;99.90
25342;DHT22;13298;48.792;9.154;2022-08-19T00:16:23;19.70;99.90
25342;DHT22;13298;48.792;9.154;2022-08-19T00:18:50;19.70;99.90
25342;DHT22;13298;48.792;9.154;2022-08-19T00:21:15;19.70;99.90
25342;DHT22;13298;48.792;9.154;2022-08-19T00:23:42;19.70;99.90
25342;DHT22;13298;48.792;9.154;2022-08-19T00:26:09;19.80;99.90
25342;DHT22;13298;48.792;9.154;2022-08-19T00:28:37;19.70;99.90
25342;DHT22;13298;48.792;9.154;2022-08-19T00:31:04;19.70;99.90
25342;DHT22;13298;48.792;9.154;2022-08-19T00:33:31;19.80;99.90
25342;DHT22;13298;48.792;9.154;2022-08-19T00:35:58;19.80;99.90
25342;DHT22;13298;48.792;9.154;2022-08-19T00:38:30;19.70;99.90
25342;DHT22;13298;48.792;9.154;2022-08-19T00:40:56;19.70;99.90
25342;DHT22;13298;48.792;9.154;2022-08-19T00:43:24;19.70;99.90
25342;DHT22;13298;48.792;9.154;2022-08-19T00:45:51;19.70;99.90
25342;DHT22;13298;48.792;9.154;2022-08-19T00:48:18;19.70;99.90
25342;DHT22;13298;48.792;9.154;2022-08-19T00:50:45;19.70;99.90
25342;DHT22;13298;48.792;9.154;2022-08-19T00:53:14;19.70;99.90
25342;DHT22;13298;48.792;9.154;2022-08-19T00:55:45;19.60;99.90
25342;DHT22;13298;48.792;9.154;2022-08-19T00:58:14;19.60;99.90
25342;DHT22;13298;48.792;9.154;2022-08-19T01:00:41;19.70;99.90
25342;DHT22;13298;48.792;9.154;2022-08-19T01:03:10;19.60;99.90
25342;DHT22;13298;48.792;9.154;2022-08-19T01:05:37;19.60;99.90
25342;DHT22;13298;48.792;9.154;2022-08-19T01:08:06;19.60;99.90
25342;DHT22;13298;48.792;9.154;2022-08-19T01:10:37;19.60;99.90
25342;DHT22;13298;48.792;9.154;2022-08-19T01:13:06;19.60;99.90
25342;DHT22;13298;48.792;9.154;2022-08-19T01:15:35;19.60;99.90
25342;DHT22;13298;48.792;9.154;2022-08-19T01:18:07;19.60;99.90
25342;DHT22;13298;48.792;9.154;2022-08-19T01:20:34;19.60;99.90
25342;DHT22;13298;48.792;9.154;2022-08-19T01:23:01;19.60;99.90
25342;DHT22;13298;48.792;9.154;2022-08-19T01:25:35;19.60;99.90
25342;DHT22;13298;48.792;9.154;2022-08-19T01:28:06;19.60;99.90
25342;DHT22;13298;48.792;9.154;2022-08-19T01:30:34;19.60;99.90
25342;DHT22;13298;48.792;9.154;2022-08-19T01:33:01;19.60;99.90
25342;DHT22;13298;48.792;9.154;2022-08-19T01:35:30;19.50;99.90
25342;DHT22;13298;48.792;9.154;2022-08-19T01:38:00;19.50;99.90
25342;DHT22;13298;48.792;9.154;2022-08-19T01:40:33;19.50;99.90
25342;DHT22;13298;48.792;9.154;2022-08-19T01:43:01;19.50;99.90
25342;DHT22;13298;48.792;9.154;2022-08-19T01:45:30;19.50;99.90
25342;DHT22;13298;48.792;9.154;2022-08-19T01:47:57;19.50;99.90
25342;DHT22;13298;48.792;9.154;2022-08-19T01:50:23;19.50;99.90
25342;DHT22;13298;48.792;9.154;2022-08-19T01:52:50;19.50;99.90
25342;DHT22;13298;48.792;9.154;2022-08-19T01:55:18;19.50;99.90
25342;DHT22;13298;48.792;9.154;2022-08-19T01:57:48;19.50;99.90
25342;DHT22;13298;48.792;9.154;2022-08-19T02:00:18;19.50;99.90
25342;DHT22;13298;48.792;9.154;2022-08-19T02:02:45;19.40;99.90
25342;DHT22;13298;48.792;9.154;2022-08-19T02:05:12;19.40;99.90
25342;DHT22;13298;48.792;9.154;2022-08-19T02:07:39;19.40;99.90
25342;DHT22;13298;48.792;9.154;2022-08-19T02:10:10;19.50;99.90
25342;DHT22;13298;48.792;9.154;2022-08-19T02:12:37;19.40;99.90
25342;DHT22;13298;48.792;9.154;2022-08-19T02:15:03;19.40;99.90
25342;DHT22;13298;48.792;9.154;2022-08-19T02:17:31;19.40;99.90
25342;DHT22;13298;48.792;9.154;2022-08-19T02:19:56;19.40;99.90
25342;DHT22;13298;48.792;9.154;2022-08-19T02:22:23;19.40;99.90
25342;DHT22;13298;48.792;9.154;2022-08-19T02:28:32;19.30;99.90
25342;DHT22;13298;48.792;9.154;2022-08-19T02:30:57;19.30;99.90
25342;DHT22;13298;48.792;9.154;2022-08-19T02:33:26;19.30;99.90
25342;DHT22;13298;48.792;9.154;2022-08-19T02:35:52;19.30;99.90
25342;DHT22;13298;48.792;9.154;2022-08-19T02:38:18;19.30;99.90
25342;DHT22;13298;48.792;9.154;2022-08-19T02:40:55;19.30;99.90
25342;DHT22;13298;48.792;9.154;2022-08-19T02:43:28;19.20;99.90
25342;DHT22;13298;48.792;9.154;2022-08-19T02:45:55;19.20;99.90
25342;DHT22;13298;48.792;9.154;2022-08-19T02:48:22;19.20;99.90
25342;DHT22;13298;48.792;9.154;2022-08-19T02:50:52;19.20;99.90
25342;DHT22;13298;48.792;9.154;2022-08-19T02:53:21;19.20;99.90
25342;DHT22;13298;48.792;9.154;2022-08-19T02:55:48;19.10;99.90
25342;DHT22;13298;48.792;9.154;2022-08-19T02:58:15;19.10;99.90
25342;DHT22;13298;48.792;9.154;2022-08-19T03:00:45;19.10;99.90
25342;DHT22;13298;48.792;9.154;2022-08-19T03:03:14;19.10;99.90
25342;DHT22;13298;48.792;9.154;2022-08-19T03:05:40;19.10;99.90
25342;DHT22;13298;48.792;9.154;2022-08-19T03:08:07;19.00;99.90
25342;DHT22;13298;48.792;9.154;2022-08-19T03:10:41;19.00;99.90
25342;DHT22;13298;48.792;9.154;2022-08-19T03:13:10;19.00;99.90
25342;DHT22;13298;48.792;9.154;2022-08-19T03:15:40;19.00;99.90
25342;DHT22;13298;48.792;9.154;2022-08-19T03:18:07;18.90;99.90
25342;DHT22;13298;48.792;9.154;2022-08-19T03:20:33;18.90;99.90
25342;DHT22;13298;48.792;9.154;2022-08-19T03:22:59;18.90;99.90
25342;DHT22;13298;48.792;9.154;2022-08-19T03:25:25;18.80;99.90
25342;DHT22;13298;48.792;9.154;2022-08-19T03:27:50;18.70;99.90
25342;DHT22;13298;48.792;9.154;2022-08-19T03:30:16;18.70;99.90
25342;DHT22;13298;48.792;9.154;2022-08-19T03:32:42;18.60;99.90
25342;DHT22;13298;48.792;9.154;2022-08-19T03:35:08;18.50;99.90
25342;DHT22;13298;48.792;9.154;2022-08-19T03:37:34;18.50;99.90
25342;DHT22;13298;48.792;9.154;2022-08-19T03:40:00;18.40;99.90
25342;DHT22;13298;48.792;9.154;2022-08-19T03:42:28;18.40;99.90
25342;DHT22;13298;48.792;9.154;2022-08-19T03:44:54;18.30;99.90
25342;DHT22;13298;48.792;9.154;2022-08-19T03:47:20;18.30;99.90
25342;DHT22;13298;48.792;9.154;2022-08-19T03:49:46;18.20;99.90
25342;DHT22;13298;48.792;9.154;2022-08-19T03:52:11;18.20;99.90
25342;DHT22;13298;48.792;9.154;2022-08-19T03:54:37;18.20;99.90
25342;DHT22;13298;48.792;9.154;2022-08-19T03:57:04;18.20;99.90
25342;DHT22;13298;48.792;9.154;2022-08-19T03:59:32;18.20;99.90
25342;DHT22;13298;48.792;9.154;2022-08-19T04:02:01;18.20;99.90
25342;DHT22;13298;48.792;9.154;2022-08-19T04:04:29;18.20;99.90
25342;DHT22;13298;48.792;9.154;2022-08-19T04:06:55;18.20;99.90
25342;DHT22;13298;48.792;9.154;2022-08-19T04:09:22;18.20;99.90
25342;DHT22;13298;48.792;9.154;2022-08-19T04:11:49;18.20;99.90
25342;DHT22;13298;48.792;9.154;2022-08-19T04:14:20;18.20;99.90
25342;DHT22;13298;48.792;9.154;2022-08-19T04:16:48;18.20;99.90
25342;DHT22;13298;48.792;9.154;2022-08-19T04:19:15;18.30;99.90
25342;DHT22;13298;48.792;9.154;2022-08-19T04:21:45;18.30;99.90
25342;DHT22;13298;48.792;9.154;2022-08-19T04:24:14;18.30;99.90
25342;DHT22;13298;48.792;9.154;2022-08-19T04:26:40;18.30;99.90
25342;DHT22;13298;48.792;9.154;2022-08-19T04:29:15;18.30;99.90
25342;DHT22;13298;48.792;9.154;2022-08-19T04:31:43;18.30;99.90
25342;DHT22;13298;48.792;9.154;2022-08-19T04:34:11;18.40;99.90
25342;DHT22;13298;48.792;9.154;2022-08-19T04:36:40;18.40;99.90
25342;DHT22;13298;48.792;9.154;2022-08-19T04:39:10;18.40;99.90
25342;DHT22;13298;48.792;9.154;2022-08-19T04:41:37;18.40;99.90
25342;DHT22;13298;48.792;9.154;2022-08-19T04:44:21;18.40;99.90
25342;DHT22;13298;48.792;9.154;2022-08-19T04:46:49;18.40;99.90
25342;DHT22;13298;48.792;9.154;2022-08-19T04:49:16;18.50;99.90
25342;DHT22;13298;48.792;9.154;2022-08-19T04:51:45;18.50;99.90
25342;DHT22;13298;48.792;9.154;2022-08-19T04:54:13;18.50;99.90
25342;DHT22;13298;48.792;9.154;2022-08-19T04:56:40;18.60;99.90
25342;DHT22;13298;48.792;9.154;2022-08-19T04:59:06;18.60;99.90
25342;DHT22;13298;48.792;9.154;2022-08-19T05:01:33;18.60;99.90
25342;DHT22;13298;48.792;9.154;2022-08-19T05:04:02;18.60;99.90
25342;DHT22;13298;48.792;9.154;2022-08-19T05:06:30;18.60;99.90
25342;DHT22;13298;48.792;9.154;2022-08-19T05:08:58;18.70;99.90
25342;DHT22;13298;48.792;9.154;2022-08-19T05:11:32;18.70;99.90
25342;DHT22;13298;48.792;9.154;2022-08-19T05:13:59;18.80;99.90
25342;DHT22;13298;48.792;9.154;2022-08-19T05:16:26;18.80;99.90
25342;DHT22;13298;48.792;9.154;2022-08-19T05:18:53;18.80;99.90
25342;DHT22;13298;48.792;9.154;2022-08-19T05:21:38;18.80;99.90
25342;DHT22;13298;48.792;9.154;2022-08-19T05:24:24;18.80;99.90
25342;DHT22;13298;48.792;9.154;2022-08-19T05:26:52;18.90;99.90
25342;DHT22;13298;48.792;9.154;2022-08-19T05:29:22;18.90;99.90
25342;DHT22;13298;48.792;9.154;2022-08-19T05:31:50;18.90;99.90
25342;DHT22;13298;48.792;9.154;2022-08-19T05:34:17;18.90;99.90
25342;DHT22;13298;48.792;9.154;2022-08-19T05:36:46;19.00;99.90
25342;DHT22;13298;48.792;9.154;2022-08-19T05:39:17;19.00;99.90
25342;DHT22;13298;48.792;9.154;2022-08-19T05:41:51;19.10;99.90
25342;DHT22;13298;48.792;9.154;2022-08-19T05:44:18;19.10;99.90
25342;DHT22;13298;48.792;9.154;2022-08-19T05:46:46;19.10;99.90
25342;DHT22;13298;48.792;9.154;2022-08-19T05:49:18;19.10;99.90
25342;DHT22;13298;48.792;9.154;2022-08-19T05:51:44;19.10;99.90
25342;DHT22;13298;48.792;9.154;2022-08-19T05:54:10;19.10;99.90
25342;DHT22;13298;48.792;9.154;2022-08-19T05:56:42;19.10;99.90
25342;DHT22;13298;48.792;9.154;2022-08-19T05:59:09;19.10;99.90
25342;DHT22;13298;48.792;9.154;2022-08-19T06:01:41;19.10;99.90
25342;DHT22;13298;48.792;9.154;2022-08-19T06:04:08;19.10;99.90
25342;DHT22;13298;48.792;9.154;2022-08-19T06:06:35;19.10;99.90
25342;DHT22;13298;48.792;9.154;2022-08-19T06:09:03;19.10;99.90
25342;DHT22;13298;48.792;9.154;2022-08-19T06:14:17;19.10;99.90
25342;DHT22;13298;48.792;9.154;2022-08-19T06:16:45;19.10;99.90
25342;DHT22;13298;48.792;9.154;2022-08-19T06:19:16;19.20;99.90
25342;DHT22;13298;48.792;9.154;2022-08-19T06:21:44;19.20;99.90
25342;DHT22;13298;48.792;9.154;2022-08-19T06:24:14;19.20;99.90
25342;DHT22;13298;48.792;9.154;2022-08-19T06:26:43;19.20;99.90
25342;DHT22;13298;48.792;9.154;2022-08-19T06:29:12;19.30;99.90
25342;DHT22;13298;48.792;9.154;2022-08-19T06:31:42;19.30;99.90
25342;DHT22;13298;48.792;9.154;2022-08-19T06:34:09;19.30;99.90
25342;DHT22;13298;48.792;9.154;2022-08-19T06:36:38;19.30;99.90
25342;DHT22;13298;48.792;9.154;2022-08-19T06:39:10;19.40;99.90
25342;DHT22;13298;48.792;9.154;2022-08-19T06:41:40;19.40;99.90
25342;DHT22;13298;48.792;9.154;2022-08-19T06:44:07;19.40;99.90
25342;DHT22;13298;48.792;9.154;2022-08-19T06:46:33;19.40;99.90
25342;DHT22;13298;48.792;9.154;2022-08-19T06:49:00;19.40;99.90
25342;DHT22;13298;48.792;9.154;2022-08-19T06:51:25;19.40;99.90
25342;DHT22;13298;48.792;9.154;2022-08-19T06:53:53;19.40;99.90
25342;DHT22;13298;48.792;9.154;2022-08-19T06:56:25;19.30;99.90
25342;DHT22;13298;48.792;9.154;2022-08-19T06:59:01;19.30;99.90
25342;DHT22;13298;48.792;9.154;2022-08-19T07:01:41;19.20;99.90
25342;DHT22;13298;48.792;9.154;2022-08-19T07:04:13;19.10;99.90
25342;DHT22;13298;48.792;9.154;2022-08-19T07:06:41;19.10;99.90
25342;DHT22;13298;48.792;9.154;2022-08-19T07:09:08;19.00;99.90
25342;DHT22;13298;48.792;9.154;2022-08-19T07:11:35;19.00;99.90
25342;DHT22;13298;48.792;9.154;2022-08-19T07:14:02;19.00;99.90
25342;DHT22;13298;48.792;9.154;2022-08-19T07:16:28;19.00;99.90
25342;DHT22;13298;48.792;9.154;2022-08-19T07:18:54;18.90;99.90
25342;DHT22;13298;48.792;9.154;2022-08-19T07:21:24;18.90;99.90
25342;DHT22;13298;48.792;9.154;2022-08-19T07:23:55;19.00;99.90
25342;DHT22;13298;48.792;9.154;2022-08-19T07:26:25;18.90;99.90
25342;DHT22;13298;48.792;9.154;2022-08-19T07:28:52;18.90;99.90
25342;DHT22;13298;48.792;9.154;2022-08-19T07:31:21;19.00;99.90
25342;DHT22;13298;48.792;9.154;2022-08-19T07:33:50;18.90;99.90
25342;DHT22;13298;48.792;9.154;2022-08-19T07:36:19;19.00;99.90
25342;DHT22;13298;48.792;9.154;2022-08-19T07:38:49;18.90;99.90
25342;DHT22;13298;48.792;9.154;2022-08-19T07:41:20;18.90;99.90
25342;DHT22;13298;48.792;9.154;2022-08-19T07:43:48;18.90;99.90
25342;DHT22;13298;48.792;9.154;2022-08-19T07:46:16;18.90;99.90
25342;DHT22;13298;48.792;9.154;2022-08-19T07:48:43;18.90;99.90
25342;DHT22;13298;48.792;9.154;2022-08-19T07:51:12;18.90;99.90
25342;DHT22;13298;48.792;9.154;2022-08-19T07:53:38;18.90;99.90
25342;DHT22;13298;48.792;9.154;2022-08-19T07:56:05;19.00;99.90
25342;DHT22;13298;48.792;9.154;2022-08-19T07:58:33;19.00;99.90
25342;DHT22;13298;48.792;9.154;2022-08-19T08:01:00;19.00;99.90
25342;DHT22;13298;48.792;9.154;2022-08-19T08:03:28;19.00;99.90
25342;DHT22;13298;48.792;9.154;2022-08-19T08:06:14;19.00;99.90
25342;DHT22;13298;48.792;9.154;2022-08-19T08:08:59;19.10;99.90
25342;DHT22;13298;48.792;9.154;2022-08-19T08:11:50;19.10;99.90
25342;DHT22;13298;48.792;9.154;2022-08-19T08:14:30;19.00;99.90
25342;DHT22;13298;48.792;9.154;2022-08-19T08:16:58;19.10;99.90
25342;DHT22;13298;48.792;9.154;2022-08-19T08:19:26;19.10;99.90
25342;DHT22;13298;48.792;9.154;2022-08-19T08:21:55;19.10;99.90
25342;DHT22;13298;48.792;9.154;2022-08-19T08:24:23;19.10;99.90
25342;DHT22;13298;48.792;9.154;2022-08-19T08:26:50;19.10;99.90
25342;DHT22;13298;48.792;9.154;2022-08-19T08:29:16;19.20;99.90
25342;DHT22;13298;48.792;9.154;2022-08-19T08:31:43;19.20;99.90
25342;DHT22;13298;48.792;9.154;2022-08-19T08:34:11;19.30;99.90
25342;DHT22;13298;48.792;9.154;2022-08-19T08:36:44;19.30;99.90
25342;DHT22;13298;48.792;9.154;2022-08-19T08:39:12;19.40;99.90
25342;DHT22;13298;48.792;9.154;2022-08-19T08:41:49;19.40;99.90
25342;DHT22;13298;48.792;9.154;2022-08-19T08:44:45;19.40;99.90
25342;DHT22;13298;48.792;9.154;2022-08-19T08:47:25;19.50;99.90
25342;DHT22;13298;48.792;9.154;2022-08-19T08:49:59;19.50;99.90
25342;DHT22;13298;48.792;9.154;2022-08-19T08:52:32;19.50;99.90
25342;DHT22;13298;48.792;9.154;2022-08-19T08:55:05;19.60;99.90
25342;DHT22;13298;48.792;9.154;2022-08-19T09:00:38;19.50;99.90
25342;DHT22;13298;48.792;9.154;2022-08-19T09:08:40;19.40;99.90
25342;DHT22;13298;48.792;9.154;2022-08-19T09:11:25;19.30;99.90
25342;DHT22;13298;48.792;9.154;2022-08-19T09:16:30;19.30;99.90
25342;DHT22;13298;48.792;9.154;2022-08-19T09:19:03;19.40;99.90
25342;DHT22;13298;48.792;9.154;2022-08-19T09:21:30;19.50;99.90
25342;DHT22;13298;48.792;9.154;2022-08-19T09:23:56;19.60;99.90
25342;DHT22;13298;48.792;9.154;2022-08-19T09:26:23;19.70;99.90
25342;DHT22;13298;48.792;9.154;2022-08-19T09:28:52;19.80;99.90
25342;DHT22;13298;48.792;9.154;2022-08-19T09:31:23;19.90;99.90
25342;DHT22;13298;48.792;9.154;2022-08-19T09:33:51;20.00;99.90
25342;DHT22;13298;48.792;9.154;2022-08-19T09:36:18;20.10;99.90
25342;DHT22;13298;48.792;9.154;2022-08-19T09:38:45;20.30;99.90
25342;DHT22;13298;48.792;9.154;2022-08-19T09:41:15;20.40;99.90
25342;DHT22;13298;48.792;9.154;2022-08-19T09:43:45;20.60;99.90
25342;DHT22;13298;48.792;9.154;2022-08-19T09:46:12;20.80;99.90
25342;DHT22;13298;48.792;9.154;2022-08-19T09:48:39;20.90;99.90
25342;DHT22;13298;48.792;9.154;2022-08-19T09:51:08;21.00;99.90
25342;DHT22;13298;48.792;9.154;2022-08-19T09:53:37;21.10;99.90
25342;DHT22;13298;48.792;9.154;2022-08-19T09:56:05;21.10;99.90
25342;DHT22;13298;48.792;9.154;2022-08-19T09:58:32;21.10;99.90
25342;DHT22;13298;48.792;9.154;2022-08-19T10:01:00;21.10;99.90
25342;DHT22;13298;48.792;9.154;2022-08-19T10:03:28;21.10;99.90
25342;DHT22;13298;48.792;9.154;2022-08-19T10:05:56;21.10;99.90
25342;DHT22;13298;48.792;9.154;2022-08-19T10:08:27;21.10;99.90
25342;DHT22;13298;48.792;9.154;2022-08-19T10:10:55;21.00;99.90
25342;DHT22;13298;48.792;9.154;2022-08-19T10:13:24;21.00;99.90
25342;DHT22;13298;48.792;9.154;2022-08-19T10:15:52;21.00;99.90
25342;DHT22;13298;48.792;9.154;2022-08-19T10:18:20;21.10;99.90
25342;DHT22;13298;48.792;9.154;2022-08-19T10:20:48;21.10;99.90
25342;DHT22;13298;48.792;9.154;2022-08-19T10:23:15;21.20;99.90
25342;DHT22;13298;48.792;9.154;2022-08-19T10:25:41;21.20;99.90
25342;DHT22;13298;48.792;9.154;2022-08-19T10:28:08;21.30;99.90
25342;DHT22;13298;48.792;9.154;2022-08-19T10:30:36;21.40;99.90
25342;DHT22;13298;48.792;9.154;2022-08-19T10:33:01;21.50;99.90
25342;DHT22;13298;48.792;9.154;2022-08-19T10:35:27;21.60;99.90
25342;DHT22;13298;48.792;9.154;2022-08-19T10:37:55;21.70;99.90
25342;DHT22;13298;48.792;9.154;2022-08-19T10:40:25;21.80;99.90
25342;DHT22;13298;48.792;9.154;2022-08-19T10:42:53;21.90;99.90
25342;DHT22;13298;48.792;9.154;2022-08-19T10:45:21;22.10;99.90
25342;DHT22;13298;48.792;9.154;2022-08-19T10:47:50;22.20;99.90
25342;DHT22;13298;48.792;9.154;2022-08-19T10:50:15;22.40;99.90
25342;DHT22;13298;48.792;9.154;2022-08-19T10:53:04;22.60;99.90
25342;DHT22;13298;48.792;9.154;2022-08-19T10:55:31;22.60;99.90
25342;DHT22;13298;48.792;9.154;2022-08-19T10:58:28;22.50;99.90
25342;DHT22;13298;48.792;9.154;2022-08-19T11:00:58;22.40;99.90
25342;DHT22;13298;48.792;9.154;2022-08-19T11:03:25;22.30;99.90
25342;DHT22;13298;48.792;9.154;2022-08-19T11:06:05;22.20;99.90
25342;DHT22;13298;48.792;9.154;2022-08-19T11:08:33;22.10;99.90
25342;DHT22;13298;48.792;9.154;2022-08-19T11:11:02;22.10;99.90
25342;DHT22;13298;48.792;9.154;2022-08-19T11:13:33;22.10;99.90
25342;DHT22;13298;48.792;9.154;2022-08-19T11:16:05;22.30;99.90
25342;DHT22;13298;48.792;9.154;2022-08-19T11:18:32;22.60;99.90
25342;DHT22;13298;48.792;9.154;2022-08-19T11:23:39;23.00;99.90
25342;DHT22;13298;48.792;9.154;2022-08-19T11:26:05;23.10;99.90
25342;DHT22;13298;48.792;9.154;2022-08-19T11:28:31;23.20;99.90
25342;DHT22;13298;48.792;9.154;2022-08-19T11:30:57;23.30;99.90
25342;DHT22;13298;48.792;9.154;2022-08-19T11:33:22;23.30;99.90
25342;DHT22;13298;48.792;9.154;2022-08-19T11:35:48;23.30;99.90
25342;DHT22;13298;48.792;9.154;2022-08-19T11:38:14;23.30;99.90
25342;DHT22;13298;48.792;9.154;2022-08-19T11:40:40;23.40;99.90
25342;DHT22;13298;48.792;9.154;2022-08-19T11:43:07;23.30;99.90
25342;DHT22;13298;48.792;9.154;2022-08-19T11:45:34;23.40;99.90
25342;DHT22;13298;48.792;9.154;2022-08-19T11:48:00;23.50;99.90
25342;DHT22;13298;48.792;9.154;2022-08-19T11:50:26;23.60;99.90
25342;DHT22;13298;48.792;9.154;2022-08-19T11:52:56;23.60;99.90
25342;DHT22;13298;48.792;9.154;2022-08-19T11:55:22;23.70;99.90
25342;DHT22;13298;48.792;9.154;2022-08-19T11:57:48;23.70;99.90
25342;DHT22;13298;48.792;9.154;2022-08-19T12:00:15;23.70;99.90
25342;DHT22;13298;48.792;9.154;2022-08-19T12:02:40;23.70;99.90
25342;DHT22;13298;48.792;9.154;2022-08-19T12:05:08;23.70;99.90
25342;DHT22;13298;48.792;9.154;2022-08-19T12:07:34;23.60;99.90
25342;DHT22;13298;48.792;9.154;2022-08-19T12:10:00;23.50;99.90
25342;DHT22;13298;48.792;9.154;2022-08-19T12:12:26;23.60;99.90
25342;DHT22;13298;48.792;9.154;2022-08-19T12:14:52;23.60;99.90
25342;DHT22;13298;48.792;9.154;2022-08-19T12:17:24;23.70;99.90
25342;DHT22;13298;48.792;9.154;2022-08-19T12:19:52;23.70;99.90
25342;DHT22;13298;48.792;9.154;2022-08-19T12:22:18;23.70;99.90
25342;DHT22;13298;48.792;9.154;2022-08-19T12:24:45;23.60;99.90
25342;DHT22;13298;48.792;9.154;2022-08-19T12:27:10;23.50;99.90
25342;DHT22;13298;48.792;9.154;2022-08-19T12:29:36;23.50;99.90
25342;DHT22;13298;48.792;9.154;2022-08-19T12:32:02;23.40;99.90
25342;DHT22;13298;48.792;9.154;2022-08-19T12:34:29;23.20;99.90
25342;DHT22;13298;48.792;9.154;2022-08-19T12:37:01;23.10;99.90
25342;DHT22;13298;48.792;9.154;2022-08-19T12:39:28;23.00;99.90
25342;DHT22;13298;48.792;9.154;2022-08-19T12:41:53;22.90;99.90
25342;DHT22;13298;48.792;9.154;2022-08-19T12:44:19;22.90;99.90
25342;DHT22;13298;48.792;9.154;2022-08-19T12:46:46;22.90;99.90
25342;DHT22;13298;48.792;9.154;2022-08-19T12:49:12;23.10;99.90
25342;DHT22;13298;48.792;9.154;2022-08-19T12:51:37;23.20;99.90
25342;DHT22;13298;48.792;9.154;2022-08-19T12:54:03;23.50;99.90
25342;DHT22;13298;48.792;9.154;2022-08-19T12:56:30;23.70;99.90
25342;DHT22;13298;48.792;9.154;2022-08-19T12:58:56;24.00;99.90
25342;DHT22;13298;48.792;9.154;2022-08-19T13:01:22;24.20;99.90
25342;DHT22;13298;48.792;9.154;2022-08-19T13:03:47;24.30;99.90
25342;DHT22;13298;48.792;9.154;2022-08-19T13:06:13;24.30;99.90
25342;DHT22;13298;48.792;9.154;2022-08-19T13:08:40;24.20;99.90
25342;DHT22;13298;48.792;9.154;2022-08-19T13:11:10;24.10;99.90
25342;DHT22;13298;48.792;9.154;2022-08-19T13:13:38;23.90;99.90
25342;DHT22;13298;48.792;9.154;2022-08-19T13:16:09;23.70;99.90
25342;DHT22;13298;48.792;9.154;2022-08-19T13:18:37;23.60;99.90
25342;DHT22;13298;48.792;9.154;2022-08-19T13:21:05;23.40;99.90
25342;DHT22;13298;48.792;9.154;2022-08-19T13:23:33;23.30;99.90
25342;DHT22;13298;48.792;9.154;2022-08-19T13:26:03;23.10;99.90
25342;DHT22;13298;48.792;9.154;2022-08-19T13:28:30;23.00;99.90
25342;DHT22;13298;48.792;9.154;2022-08-19T13:31:21;22.90;99.90
25342;DHT22;13298;48.792;9.154;2022-08-19T13:34:06;22.90;99.90
25342;DHT22;13298;48.792;9.154;2022-08-19T13:36:33;22.80;99.90
25342;DHT22;13298;48.792;9.154;2022-08-19T13:38:59;22.80;99.90
25342;DHT22;13298;48.792;9.154;2022-08-19T13:41:26;22.80;99.90
25342;DHT22;13298;48.792;9.154;2022-08-19T13:43:52;22.70;99.90
25342;DHT22;13298;48.792;9.154;2022-08-19T13:46:18;22.60;99.90
25342;DHT22;13298;48.792;9.154;2022-08-19T13:48:45;22.50;99.90
25342;DHT22;13298;48.792;9.154;2022-08-19T13:51:13;22.40;99.90
25342;DHT22;13298;48.792;9.154;2022-08-19T13:53:41;22.20;99.90
25342;DHT22;13298;48.792;9.154;2022-08-19T13:56:13;22.20;99.90
25342;DHT22;13298;48.792;9.154;2022-08-19T13:58:41;22.10;99.90
25342;DHT22;13298;48.792;9.154;2022-08-19T14:01:07;22.00;99.90
25342;DHT22;13298;48.792;9.154;2022-08-19T14:03:33;22.00;99.90
25342;DHT22;13298;48.792;9.154;2022-08-19T14:06:00;21.90;99.90
25342;DHT22;13298;48.792;9.154;2022-08-19T14:08:28;21.90;99.90
25342;DHT22;13298;48.792;9.154;2022-08-19T14:10:57;21.90;99.90
25342;DHT22;13298;48.792;9.154;2022-08-19T14:13:23;22.00;99.90
25342;DHT22;13298;48.792;9.154;2022-08-19T14:15:49;22.10;99.90
25342;DHT22;13298;48.792;9.154;2022-08-19T14:18:17;22.20;99.90
25342;DHT22;13298;48.792;9.154;2022-08-19T14:20:43;22.30;99.90
25342;DHT22;13298;48.792;9.154;2022-08-19T14:23:09;22.40;99.90
25342;DHT22;13298;48.792;9.154;2022-08-19T14:25:37;22.50;99.90
25342;DHT22;13298;48.792;9.154;2022-08-19T14:28:03;22.50;99.90
25342;DHT22;13298;48.792;9.154;2022-08-19T14:30:34;22.60;99.90
25342;DHT22;13298;48.792;9.154;2022-08-19T14:33:02;22.70;99.90
25342;DHT22;13298;48.792;9.154;2022-08-19T14:35:29;22.80;99.90
25342;DHT22;13298;48.792;9.154;2022-08-19T14:37:58;22.90;99.90
25342;DHT22;13298;48.792;9.154;2022-08-19T14:40:26;23.10;99.90
25342;DHT22;13298;48.792;9.154;2022-08-19T14:42:55;23.20;99.90
25342;DHT22;13298;48.792;9.154;2022-08-19T14:45:25;23.40;99.90
25342;DHT22;13298;48.792;9.154;2022-08-19T14:47:52;23.40;99.90
25342;DHT22;13298;48.792;9.154;2022-08-19T14:50:19;23.40;99.90
25342;DHT22;13298;48.792;9.154;2022-08-19T14:52:46;23.30;99.90
25342;DHT22;13298;48.792;9.154;2022-08-19T14:55:14;23.30;99.90
25342;DHT22;13298;48.792;9.154;2022-08-19T14:57:41;23.20;99.90
25342;DHT22;13298;48.792;9.154;2022-08-19T15:00:08;23.20;99.90
25342;DHT22;13298;48.792;9.154;2022-08-19T15:02:39;23.20;99.90
25342;DHT22;13298;48.792;9.154;2022-08-19T15:05:09;23.30;99.90
25342;DHT22;13298;48.792;9.154;2022-08-19T15:07:36;23.50;99.90
25342;DHT22;13298;48.792;9.154;2022-08-19T15:10:03;23.60;99.90
25342;DHT22;13298;48.792;9.154;2022-08-19T15:12:32;23.80;99.90
25342;DHT22;13298;48.792;9.154;2022-08-19T15:14:59;24.00;99.90
25342;DHT22;13298;48.792;9.154;2022-08-19T15:17:25;24.10;99.90
25342;DHT22;13298;48.792;9.154;2022-08-19T15:19:51;24.30;99.90
25342;DHT22;13298;48.792;9.154;2022-08-19T15:22:17;24.40;99.90
25342;DHT22;13298;48.792;9.154;2022-08-19T15:24:43;24.50;99.90
25342;DHT22;13298;48.792;9.154;2022-08-19T15:27:13;24.70;99.90
25342;DHT22;13298;48.792;9.154;2022-08-19T15:29:39;24.70;99.90
25342;DHT22;13298;48.792;9.154;2022-08-19T15:32:07;24.70;99.90
25342;DHT22;13298;48.792;9.154;2022-08-19T15:34:34;24.80;99.90
25342;DHT22;13298;48.792;9.154;2022-08-19T15:37:00;24.80;99.90
25342;DHT22;13298;48.792;9.154;2022-08-19T15:39:30;24.80;99.90
25342;DHT22;13298;48.792;9.154;2022-08-19T15:41:56;24.80;99.90
25342;DHT22;13298;48.792;9.154;2022-08-19T15:44:25;24.80;99.90
25342;DHT22;13298;48.792;9.154;2022-08-19T15:46:51;24.80;99.90
25342;DHT22;13298;48.792;9.154;2022-08-19T15:49:18;24.80;99.90
25342;DHT22;13298;48.792;9.154;2022-08-19T15:51:47;24.80;99.90
25342;DHT22;13298;48.792;9.154;2022-08-19T15:54:17;24.70;99.90
25342;DHT22;13298;48.792;9.154;2022-08-19T15:56:46;24.70;99.90
25342;DHT22;13298;48.792;9.154;2022-08-19T15:59:34;24.70;99.90